Time;durP1;ratioP1;P1;durP2;ratioP2;P2;SDS_P1;SDS_P2;PMS_P1;PMS_P2;Temp;Humidity;BMP_temperature;BMP_pressure;BME280_temperature;BME280_humidity;BME280_pressure;Samples;Min_cycle;Max_cycle;Signal;HPM_P1;HPM_P2
2022/02/22 00:00:51;;;;;;;10.72;7.62;;;;;;;6.01;69.92;99696.83;1771079;80;21209;-63
2022/02/22 00:03:58;;;;;;;15.08;8.05;;;;;;;6.03;69.81;99692.09;1770808;81;21711;-63
2022/02/22 00:07:05;;;;;;;14.53;8.25;;;;;;;6.01;69.74;99688.68;1771106;80;21348;-62
2022/02/22 00:10:15;;;;;;;17.37;9.03;;;;;;;6.00;69.61;99682.05;1771095;80;21257;-63
2022/02/22 00:13:24;;;;;;;14.10;8.25;;;;;;;5.94;69.56;99671.35;1771673;80;21162;-62
2022/02/22 00:16:31;;;;;;;12.55;7.85;;;;;;;5.90;69.66;99667.75;1770943;81;21197;-63
2022/02/22 00:19:37;;;;;;;16.45;8.03;;;;;;;5.89;69.74;99671.48;1771578;80;21402;-64
2022/02/22 00:22:43;;;;;;;15.20;8.73;;;;;;;5.89;69.70;99669.63;1770978;81;21324;-64
2022/02/22 00:25:49;;;;;;;14.93;8.33;;;;;;;5.84;69.64;99667.91;1735420;82;21268;-64
2022/02/22 00:28:57;;;;;;;16.12;9.15;;;;;;;5.79;69.72;99664.80;1735363;82;21204;-63
2022/02/22 00:32:03;;;;;;;15.70;8.55;;;;;;;5.78;69.81;99667.17;1735451;82;21189;-62
2022/02/22 00:35:08;;;;;;;13.45;8.18;;;;;;;5.79;69.72;99666.65;1735587;82;21266;-63
2022/02/22 00:38:15;;;;;;;13.38;7.92;;;;;;;5.77;69.65;99663.27;1735761;82;21201;-63
2022/02/22 00:41:21;;;;;;;14.87;8.28;;;;;;;5.75;69.67;99671.58;1735484;82;21224;-64
2022/02/22 00:44:27;;;;;;;16.95;8.50;;;;;;;5.71;69.65;99677.47;1735619;82;21188;-63
2022/02/22 00:47:32;;;;;;;13.08;9.13;;;;;;;5.66;69.79;99679.84;1735363;82;21204;-63
2022/02/22 00:50:39;;;;;;;12.90;8.43;;;;;;;5.63;69.85;99684.21;1735306;82;21790;-62
2022/02/22 00:53:45;;;;;;;15.25;9.50;;;;;;;5.56;70.03;99687.25;1735416;82;21634;-63
2022/02/22 00:56:51;;;;;;;18.48;9.08;;;;;;;5.53;70.17;99683.00;1735487;82;21609;-63
2022/02/22 00:59:57;;;;;;;14.15;8.70;;;;;;;5.49;70.27;99691.59;1735426;82;21324;-63
2022/02/22 01:03:03;;;;;;;19.35;10.03;;;;;;;5.44;70.39;99689.91;1735315;82;21205;-63
2022/02/22 01:06:09;;;;;;;17.12;8.80;;;;;;;5.36;70.50;99693.39;1735451;82;21243;-63
2022/02/22 01:09:15;;;;;;;15.00;8.98;;;;;;;5.30;70.66;99693.17;1738386;82;21338;-63
2022/02/22 01:12:22;;;;;;;15.20;9.63;;;;;;;5.27;70.80;99696.20;1735369;82;21210;-64
2022/02/22 01:15:29;;;;;;;17.05;9.40;;;;;;;5.22;70.92;99695.33;1735405;82;21228;-63
2022/02/22 01:18:35;;;;;;;18.20;9.73;;;;;;;5.22;70.94;99690.41;1738640;82;21358;-62
2022/02/22 01:21:41;;;;;;;18.55;10.20;;;;;;;5.18;70.98;99693.09;1735471;82;21298;-64
2022/02/22 01:24:46;;;;;;;14.43;9.93;;;;;;;5.15;71.07;99694.78;1745986;78;21371;-63
2022/02/22 01:27:52;;;;;;;16.85;9.93;;;;;;;5.11;71.15;99687.95;1769444;80;21221;-63
2022/02/22 01:30:58;;;;;;;18.05;10.45;;;;;;;5.09;71.21;99687.28;1769296;80;21363;-63
2022/02/22 01:34:04;;;;;;;14.75;9.70;;;;;;;5.10;71.32;99687.13;1769477;80;21300;-62
2022/02/22 01:37:10;;;;;;;14.98;10.50;;;;;;;5.11;71.26;99683.88;1769346;81;21725;-63
2022/02/22 01:40:18;;;;;;;18.80;10.32;;;;;;;5.11;71.25;99691.52;1769187;81;21228;-63
2022/02/22 01:43:25;;;;;;;18.60;10.15;;;;;;;5.12;71.22;99681.00;1769581;80;21296;-64
2022/02/22 01:46:30;;;;;;;15.05;10.48;;;;;;;5.15;71.13;99675.79;1769380;80;21234;-63
2022/02/22 01:49:35;;;;;;;17.90;11.90;;;;;;;5.13;71.01;99673.23;1769554;80;21182;-63
2022/02/22 01:52:44;;;;;;;19.45;12.03;;;;;;;5.14;71.07;99686.30;1769299;80;21178;-63
2022/02/22 01:55:51;;;;;;;22.20;13.38;;;;;;;5.10;71.21;99684.90;1769175;81;21595;-62
2022/02/22 01:58:58;;;;;;;27.25;15.70;;;;;;;5.08;71.40;99688.27;1769207;81;21363;-62
2022/02/22 02:02:06;;;;;;;26.15;16.82;;;;;;;5.01;71.68;99685.86;1762664;81;21327;-63
2022/02/22 02:05:13;;;;;;;24.43;16.17;;;;;;;4.94;72.02;99696.97;1769249;80;21372;-62
2022/02/22 02:08:19;;;;;;;27.07;16.25;;;;;;;4.88;72.31;99700.32;1769396;81;21184;-62
2022/02/22 02:11:25;;;;;;;33.90;19.82;;;;;;;4.86;72.80;99696.41;1769374;81;21367;-64
2022/02/22 02:14:30;;;;;;;32.08;20.00;;;;;;;4.79;73.09;99700.73;1769484;80;21281;-63
2022/02/22 02:17:37;;;;;;;36.28;22.48;;;;;;;4.77;73.51;99704.63;1769207;80;21340;-63
2022/02/22 02:20:43;;;;;;;39.70;22.15;;;;;;;4.74;73.81;99703.59;1769174;80;21376;-63
2022/02/22 02:23:49;;;;;;;45.12;23.45;;;;;;;4.67;74.12;99711.97;1769494;80;21339;-65
2022/02/22 02:26:54;;;;;;;36.73;23.32;;;;;;;4.63;74.46;99717.71;1760314;80;21480;-63
2022/02/22 02:29:59;;;;;;;39.03;24.30;;;;;;;4.63;74.79;99717.38;1769540;80;21763;-63
2022/02/22 02:33:05;;;;;;;40.78;23.55;;;;;;;4.60;75.02;99715.31;1761817;81;21339;-63
2022/02/22 02:36:12;;;;;;;40.17;24.32;;;;;;;4.63;75.21;99721.44;1769116;81;21380;-63
2022/02/22 02:39:19;;;;;;;39.95;23.62;;;;;;;4.66;75.36;99719.77;1769040;80;21765;-63
2022/02/22 02:42:25;;;;;;;35.75;23.05;;;;;;;4.70;75.45;99719.80;1769818;80;21372;-63
2022/02/22 02:45:30;;;;;;;36.23;21.35;;;;;;;4.73;75.49;99731.68;1769482;81;21427;-63
2022/02/22 02:48:35;;;;;;;33.70;21.52;;;;;;;4.75;75.56;99737.31;1769244;81;21229;-64
2022/02/22 02:51:41;;;;;;;34.27;19.87;;;;;;;4.79;75.68;99729.73;1769275;80;21367;-64
2022/02/22 02:54:47;;;;;;;32.67;20.77;;;;;;;4.83;75.72;99740.11;1769320;80;21355;-63
2022/02/22 02:57:52;;;;;;;33.42;20.40;;;;;;;4.85;75.79;99741.30;1769921;80;21336;-63
2022/02/22 03:00:58;;;;;;;30.85;20.70;;;;;;;4.90;75.88;99740.34;1769350;81;21459;-63
2022/02/22 03:04:04;;;;;;;34.95;21.57;;;;;;;4.91;75.92;99753.73;1770133;80;21221;-63
2022/02/22 03:07:09;;;;;;;36.80;21.70;;;;;;;4.95;76.09;99742.09;1769438;80;21264;-64
2022/02/22 03:10:17;;;;;;;31.93;20.37;;;;;;;5.00;76.24;99738.38;1769330;80;21344;-64
2022/02/22 03:13:24;;;;;;;33.23;20.80;;;;;;;5.06;76.30;99731.83;1769157;80;21193;-63
2022/02/22 03:16:31;;;;;;;31.30;20.45;;;;;;;5.08;76.29;99731.66;1768684;80;21221;-63
2022/02/22 03:19:37;;;;;;;34.03;21.57;;;;;;;5.09;76.40;99725.25;1761983;81;21196;-64
2022/02/22 03:22:45;;;;;;;36.35;20.92;;;;;;;5.10;76.53;99732.37;1769617;80;21383;-64
2022/02/22 03:25:50;;;;;;;29.18;19.87;;;;;;;5.15;76.68;99739.53;1769165;80;21422;-62
2022/02/22 03:28:55;;;;;;;32.85;18.48;;;;;;;5.17;76.69;99737.52;1768102;81;21221;-62
2022/02/22 03:32:02;;;;;;;33.63;18.87;;;;;;;5.18;76.70;99733.30;1769323;81;21383;-62
2022/02/22 03:35:07;;;;;;;31.42;19.37;;;;;;;5.19;76.76;99739.55;1769183;81;21359;-63
2022/02/22 03:38:13;;;;;;;28.10;18.67;;;;;;;5.21;76.81;99737.05;1769280;81;21340;-63
2022/02/22 03:41:22;;;;;;;27.02;18.92;;;;;;;5.23;76.92;99736.89;1769375;80;21213;-62
2022/02/22 03:44:26;;;;;;;30.45;18.92;;;;;;;5.26;76.93;99732.50;1769434;81;21698;-63
2022/02/22 03:47:34;;;;;;;25.02;17.32;;;;;;;5.26;76.95;99727.94;1769173;81;21335;-63
2022/02/22 03:50:40;;;;;;;28.20;17.40;;;;;;;5.31;76.96;99735.59;1769115;80;21201;-63
2022/02/22 03:53:46;;;;;;;25.30;16.10;;;;;;;5.31;76.91;99745.09;1769072;80;21198;-64
2022/02/22 03:56:52;;;;;;;23.95;16.27;;;;;;;5.28;76.96;99739.98;1769179;80;21182;-62
2022/02/22 03:59:59;;;;;;;23.70;16.17;;;;;;;5.25;77.06;99758.77;1769199;81;21225;-62
2022/02/22 04:03:10;;;;;;;23.18;15.48;;;;;;;5.23;77.12;99748.57;1769230;81;21768;-62
2022/02/22 04:06:17;;;;;;;22.35;15.05;;;;;;;5.21;77.31;99749.26;1769209;81;21209;-63
2022/02/22 04:09:23;;;;;;;22.13;14.23;;;;;;;5.23;77.49;99745.03;1770803;80;21284;-60
2022/02/22 04:12:27;;;;;;;20.60;13.68;;;;;;;5.25;77.58;99729.45;1769197;80;21245;-60
2022/02/22 04:15:33;;;;;;;24.00;15.00;;;;;;;5.30;77.66;99740.66;1769947;80;21332;-60
2022/02/22 04:18:38;;;;;;;23.30;14.75;;;;;;;5.34;77.71;99743.41;1769361;81;21399;-60
2022/02/22 04:21:45;;;;;;;19.20;13.45;;;;;;;5.33;77.64;99741.70;1769384;81;21795;-61
2022/02/22 04:24:52;;;;;;;22.52;14.07;;;;;;;5.35;77.74;99753.25;1769234;81;21363;-60
2022/02/22 04:27:57;;;;;;;23.60;14.10;;;;;;;5.38;77.78;99751.57;1769549;79;21312;-61
2022/02/22 04:31:02;;;;;;;19.73;13.60;;;;;;;5.41;77.76;99749.89;1770922;81;21359;-61
2022/02/22 04:34:09;;;;;;;20.52;13.85;;;;;;;5.44;77.71;99749.08;1770829;81;21344;-60
2022/02/22 04:37:16;;;;;;;23.32;14.10;;;;;;;5.46;77.70;99739.42;1771009;80;21765;-60
2022/02/22 04:40:23;;;;;;;21.85;14.15;;;;;;;5.48;77.71;99745.55;1771035;80;21940;-61
2022/02/22 04:43:28;;;;;;;19.65;13.25;;;;;;;5.52;77.76;99746.42;1772025;80;21178;-59
2022/02/22 04:46:34;;;;;;;20.68;13.88;;;;;;;5.58;77.72;99742.23;1771155;80;21351;-61
2022/02/22 04:49:39;;;;;;;22.73;13.93;;;;;;;5.62;77.69;99740.89;1771090;80;21402;-61
2022/02/22 04:52:46;;;;;;;20.75;13.93;;;;;;;5.66;77.59;99749.08;1770897;81;21343;-60
2022/02/22 04:55:52;;;;;;;20.45;13.40;;;;;;;5.69;77.52;99763.16;1762741;80;21888;-61
2022/02/22 04:58:58;;;;;;;21.95;14.03;;;;;;;5.70;77.54;99758.59;1771079;80;21333;-60
2022/02/22 05:02:03;;;;;;;22.20;13.95;;;;;;;5.72;77.50;99749.26;1771075;80;21386;-61
2022/02/22 05:05:09;;;;;;;21.87;14.40;;;;;;;5.74;77.50;99761.34;1770968;81;21371;-60
2022/02/22 05:08:16;;;;;;;22.65;14.53;;;;;;;5.77;77.51;99767.81;1771562;80;21392;-60
2022/02/22 05:11:22;;;;;;;19.60;13.53;;;;;;;5.80;77.51;99766.13;1771057;80;21351;-60
2022/02/22 05:14:29;;;;;;;22.93;14.58;;;;;;;5.82;77.43;99774.98;1771196;80;21332;-60
2022/02/22 05:17:36;;;;;;;24.12;15.28;;;;;;;5.82;77.47;99774.98;1771059;80;21849;-60
2022/02/22 05:20:54;;;;;;;25.32;14.55;;;;;;;5.86;77.57;99776.38;1770810;80;21256;-60
2022/02/22 05:23:50;;;;;;;27.27;14.95;;;;;;;5.90;77.60;99777.74;1772474;80;21339;-61
2022/02/22 05:26:56;;;;;;;23.30;15.08;;;;;;;5.96;77.59;99787.99;1771501;80;21320;-60
2022/02/22 05:30:02;;;;;;;21.07;14.47;;;;;;;6.00;77.53;99794.79;1770354;79;21339;-61
2022/02/22 05:33:08;;;;;;;23.12;14.28;;;;;;;6.04;77.46;99798.38;1768972;81;21189;-61
2022/02/22 05:36:15;;;;;;;24.52;15.63;;;;;;;6.07;77.43;99801.30;1769243;81;21284;-61
2022/02/22 05:39:21;;;;;;;24.77;16.10;;;;;;;6.08;77.40;99802.98;1765475;79;21209;-61
2022/02/22 05:42:28;;;;;;;27.52;16.10;;;;;;;6.09;77.33;99804.67;1770326;80;21220;-61
2022/02/22 05:45:35;;;;;;;27.95;18.00;;;;;;;6.08;77.36;99804.34;1768018;80;21363;-60
2022/02/22 05:48:43;;;;;;;27.20;16.75;;;;;;;6.10;77.44;99807.77;1769035;80;21197;-61
2022/02/22 05:51:48;;;;;;;29.72;18.52;;;;;;;6.12;77.49;99798.92;1769140;80;21212;-60
2022/02/22 05:54:54;;;;;;;30.08;19.02;;;;;;;6.16;77.59;99807.61;1768652;81;21200;-61
2022/02/22 05:57:59;;;;;;;32.63;18.52;;;;;;;6.20;77.61;99815.80;1769793;81;21181;-61
2022/02/22 06:01:06;;;;;;;33.85;20.45;;;;;;;6.24;77.54;99811.23;1768901;79;21209;-60
2022/02/22 06:04:14;;;;;;;31.10;19.35;;;;;;;6.27;77.54;99810.03;1740535;80;21219;-60
2022/02/22 06:07:20;;;;;;;29.55;18.98;;;;;;;6.30;77.55;99810.57;1766283;81;21228;-60
2022/02/22 06:10:28;;;;;;;29.07;17.15;;;;;;;6.33;77.47;99795.30;1768045;81;21267;-60
2022/02/22 06:13:35;;;;;;;28.52;18.15;;;;;;;6.35;77.55;99791.91;1767499;80;21201;-60
2022/02/22 06:16:40;;;;;;;28.38;15.98;;;;;;;6.36;77.50;99790.89;1764087;81;21767;-60
2022/02/22 06:19:47;;;;;;;26.80;17.05;;;;;;;6.40;77.54;99793.64;1755852;81;21589;-61
2022/02/22 06:22:52;;;;;;;30.95;16.52;;;;;;;6.44;77.62;99795.00;1769990;80;21212;-61
2022/02/22 06:25:59;;;;;;;29.82;18.40;;;;;;;6.50;77.60;99799.77;1720887;82;21251;-60
2022/02/22 06:29:03;;;;;;;28.00;18.07;;;;;;;6.56;77.64;99793.70;1720012;83;21257;-60
2022/02/22 06:32:12;;;;;;;32.13;19.98;;;;;;;6.65;77.53;99780.97;1723066;81;21218;-62
2022/02/22 06:35:16;;;;;;;28.35;17.02;;;;;;;6.73;77.42;99795.45;1769542;79;21271;-61
2022/02/22 06:38:21;;;;;;;27.25;16.85;;;;;;;6.77;77.18;99790.53;1770277;80;21180;-61
2022/02/22 06:41:26;;;;;;;32.93;17.75;;;;;;;6.81;77.23;99790.53;1768808;80;21232;-60
2022/02/22 06:44:31;;;;;;;29.15;18.40;;;;;;;6.88;77.20;99785.61;1756965;79;21185;-60
2022/02/22 06:47:38;;;;;;;26.50;16.85;;;;;;;6.96;77.14;99777.99;1768343;81;21165;-60
2022/02/22 06:50:43;;;;;;;29.35;17.23;;;;;;;6.99;76.99;99782.56;1768255;79;21217;-61
2022/02/22 06:53:49;;;;;;;29.00;17.82;;;;;;;7.03;76.88;99783.95;1767064;80;21201;-61
2022/02/22 06:56:55;;;;;;;26.00;16.50;;;;;;;7.02;76.80;99776.81;1769711;80;21200;-60
2022/02/22 07:00:02;;;;;;;26.93;16.52;;;;;;;7.04;76.97;99782.92;1768175;80;21363;-61
2022/02/22 07:03:08;;;;;;;29.07;17.67;;;;;;;7.10;77.05;99795.84;1769142;80;21269;-60
2022/02/22 07:06:15;;;;;;;31.55;17.75;;;;;;;7.18;77.02;99793.67;1763222;81;21755;-61
2022/02/22 07:09:21;;;;;;;30.82;17.07;;;;;;;7.22;76.93;99794.52;1769180;80;21727;-61
2022/02/22 07:12:26;;;;;;;33.78;19.02;;;;;;;7.23;76.84;99796.20;1780395;80;21335;-60
2022/02/22 07:15:33;;;;;;;34.50;18.23;;;;;;;7.25;76.88;99794.67;1769783;80;21738;-60
2022/02/22 07:18:38;;;;;;;31.52;17.98;;;;;;;7.27;77.04;99794.86;1768771;81;21184;-61
2022/02/22 07:21:43;;;;;;;32.90;18.92;;;;;;;7.33;77.09;99790.09;1768451;80;21240;-61
2022/02/22 07:24:50;;;;;;;34.73;19.07;;;;;;;7.41;77.03;99791.96;1769134;79;21585;-61
2022/02/22 07:27:55;;;;;;;33.55;19.85;;;;;;;7.42;77.07;99790.43;1769568;80;21573;-60
2022/02/22 07:31:03;;;;;;;41.40;20.95;;;;;;;7.44;76.94;99793.84;1767682;79;21267;-60
2022/02/22 07:34:10;;;;;;;37.25;20.43;;;;;;;7.47;76.99;99793.50;1757987;80;21196;-60
2022/02/22 07:37:15;;;;;;;38.70;20.40;;;;;;;7.49;77.04;99794.19;1756309;80;21244;-59
2022/02/22 07:40:24;;;;;;;36.83;20.02;;;;;;;7.58;77.18;99808.13;1760506;79;21248;-60
2022/02/22 07:43:29;;;;;;;35.85;20.25;;;;;;;7.68;77.21;99806.59;1767492;80;21299;-61
2022/02/22 07:46:34;;;;;;;41.60;21.48;;;;;;;7.76;77.07;99813.40;1739931;80;21348;-61
2022/02/22 07:49:41;;;;;;;42.80;21.80;;;;;;;7.81;76.91;99812.88;1740538;81;21232;-61
2022/02/22 07:52:50;;;;;;;40.88;22.37;;;;;;;7.80;76.81;99813.38;1746284;81;21300;-59
2022/02/22 07:55:56;;;;;;;43.05;22.42;;;;;;;7.81;76.79;99811.52;1738537;81;21228;-59
2022/02/22 07:59:04;;;;;;;38.08;21.15;;;;;;;7.81;76.74;99811.52;1743756;80;21212;-59
2022/02/22 08:02:12;;;;;;;39.67;22.13;;;;;;;7.80;76.74;99821.55;1708599;82;21247;-60
2022/02/22 08:05:18;;;;;;;42.80;21.33;;;;;;;7.79;76.71;99813.55;1749414;79;21217;-59
2022/02/22 08:08:25;;;;;;;36.68;21.23;;;;;;;7.80;76.67;99819.36;1738963;82;21192;-60
2022/02/22 08:11:31;;;;;;;42.62;22.60;;;;;;;7.75;76.73;99829.92;1738605;81;21223;-59
2022/02/22 08:14:38;;;;;;;38.70;21.70;;;;;;;7.73;76.88;99837.41;1763699;80;21308;-59
2022/02/22 08:17:48;;;;;;;38.98;21.52;;;;;;;7.72;76.99;99832.48;1769512;81;21174;-59
2022/02/22 08:20:54;;;;;;;34.88;21.12;;;;;;;7.73;77.05;99835.54;1756265;81;21316;-58
2022/02/22 08:23:59;;;;;;;49.42;23.30;;;;;;;7.75;77.01;99832.64;1767380;80;21169;-59
2022/02/22 08:27:08;;;;;;;42.90;22.37;;;;;;;7.73;77.10;99831.45;1768254;81;22068;-59
2022/02/22 08:30:15;;;;;;;55.55;31.30;;;;;;;7.75;77.20;99834.01;1768334;80;21212;-59
2022/02/22 08:33:21;;;;;;;49.88;25.70;;;;;;;7.74;77.29;99835.87;1762891;79;21313;-59
2022/02/22 08:36:27;;;;;;;52.78;25.45;;;;;;;7.74;77.47;99844.58;1769082;79;21212;-58
2022/02/22 08:39:42;;;;;;;47.17;22.65;;;;;;;7.75;77.63;99848.98;1767426;79;21773;-58
2022/02/22 08:42:47;;;;;;;40.48;22.85;;;;;;;7.73;77.74;99851.89;1744502;81;21181;-59
2022/02/22 08:45:54;;;;;;;43.65;23.57;;;;;;;7.72;78.07;99852.92;1768540;79;21233;-58
2022/02/22 08:49:00;;;;;;;49.58;25.80;;;;;;;7.77;78.32;99856.48;1769024;80;21200;-59
2022/02/22 08:52:08;;;;;;;47.30;25.30;;;;;;;7.74;78.52;99862.28;1768357;80;21654;-58
2022/02/22 08:55:16;;;;;;;40.25;24.63;;;;;;;7.68;78.85;99858.84;1766464;79;21220;-59
2022/02/22 08:58:22;;;;;;;49.27;25.88;;;;;;;7.70;79.31;99860.40;1762471;80;21585;-58
2022/02/22 09:01:29;;;;;;;45.35;25.30;;;;;;;7.74;79.57;99863.64;1760649;79;21784;-60
2022/02/22 09:04:34;;;;;;;85.62;44.95;;;;;;;7.77;79.74;99862.77;1756219;80;21200;-60
2022/02/22 09:07:43;;;;;;;35.52;22.22;;;;;;;7.83;79.98;99866.20;1768515;80;21185;-60
2022/02/22 09:10:49;;;;;;;41.70;25.32;;;;;;;7.88;80.09;99874.68;1768151;81;21503;-60
2022/02/22 09:13:56;;;;;;;60.20;37.15;;;;;;;7.94;80.16;99869.07;1763731;81;21546;-61
2022/02/22 09:17:02;;;;;;;41.88;24.43;;;;;;;8.00;80.11;99871.97;1770184;80;21264;-60
2022/02/22 09:20:08;;;;;;;45.10;26.07;;;;;;;8.07;80.16;99874.33;1769511;79;21185;-60
2022/02/22 09:23:14;;;;;;;42.23;23.60;;;;;;;8.14;80.08;99870.40;1770605;80;21257;-61
2022/02/22 09:26:20;;;;;;;36.10;23.85;;;;;;;8.18;79.94;99875.33;1769598;79;21750;-61
2022/02/22 09:29:26;;;;;;;44.70;23.07;;;;;;;8.21;80.01;99860.52;1768340;81;21347;-60
2022/02/22 09:32:32;;;;;;;36.08;21.50;;;;;;;8.25;79.96;99871.44;1768326;81;21861;-61
2022/02/22 09:35:40;;;;;;;36.08;21.87;;;;;;;8.31;80.07;99866.67;1767063;80;21865;-61
2022/02/22 09:38:48;;;;;;;54.15;37.80;;;;;;;8.35;79.86;99862.06;1768654;80;21339;-60
2022/02/22 09:41:54;;;;;;;38.23;25.23;;;;;;;8.40;79.90;99857.44;1742781;81;21292;-60
2022/02/22 09:44:59;;;;;;;43.38;24.57;;;;;;;8.43;79.72;99854.36;1755702;79;21199;-61
2022/02/22 09:48:08;;;;;;;37.28;24.40;;;;;;;8.42;79.64;99863.04;1768121;81;21192;-59
2022/02/22 09:51:15;;;;;;;38.35;23.05;;;;;;;8.42;79.61;99858.13;1767610;80;21217;-60
2022/02/22 09:54:20;;;;;;;36.73;22.95;;;;;;;8.43;79.63;99859.81;1761073;80;21460;-60
2022/02/22 09:57:26;;;;;;;42.20;23.57;;;;;;;8.47;79.74;99859.78;1768469;80;21185;-60
2022/02/22 10:00:35;;;;;;;37.73;24.30;;;;;;;8.44;79.73;99858.78;1750008;80;21216;-63
2022/02/22 10:03:43;;;;;;;41.15;25.20;;;;;;;8.48;79.90;99856.05;1767504;80;21194;-60
2022/02/22 10:06:53;;;;;;;34.88;21.60;;;;;;;8.53;79.88;99853.12;1768918;80;21225;-60
2022/02/22 10:10:04;;;;;;;36.68;21.12;;;;;;;8.58;79.85;99849.86;1767336;80;21205;-60
2022/02/22 10:13:15;;;;;;;38.25;22.70;;;;;;;8.66;79.78;99851.19;1766364;80;21186;-61
2022/02/22 10:16:15;;;;;;;32.90;21.87;;;;;;;8.72;79.68;99851.88;1766103;80;21637;-60
2022/02/22 10:19:25;;;;;;;36.13;22.73;;;;;;;8.75;79.54;99854.25;1766459;80;22026;-60
2022/02/22 10:22:32;;;;;;;32.85;22.27;;;;;;;8.77;79.34;99854.90;1767291;80;21281;-59
2022/02/22 10:25:37;;;;;;;29.35;20.45;;;;;;;8.75;79.09;99852.88;1766980;80;21194;-60
2022/02/22 10:28:44;;;;;;;33.98;20.77;;;;;;;8.77;79.13;99851.66;1768252;80;21186;-60
2022/02/22 10:31:51;;;;;;;35.95;24.12;;;;;;;8.73;78.81;99847.61;1758250;80;21270;-60
2022/02/22 10:34:57;;;;;;;31.85;20.90;;;;;;;8.69;78.76;99852.20;1767013;80;21241;-59
2022/02/22 10:38:03;;;;;;;33.95;20.92;;;;;;;8.65;78.80;99853.59;1744173;80;21256;-60
2022/02/22 10:41:15;;;;;;;29.70;20.82;;;;;;;8.62;78.90;99847.13;1767041;80;21232;-60
2022/02/22 10:44:36;;;;;;;31.97;21.68;;;;;;;8.59;78.98;99848.85;1767724;80;21722;-60
2022/02/22 10:47:43;;;;;;;29.12;20.30;;;;;;;8.55;79.13;99848.85;1765136;80;21288;-60
2022/02/22 10:50:52;;;;;;;32.03;19.82;;;;;;;8.53;79.29;99852.29;1771052;80;21247;-59
2022/02/22 10:54:00;;;;;;;29.45;19.80;;;;;;;8.54;79.43;99849.89;1743967;80;21343;-60
2022/02/22 10:57:06;;;;;;;29.23;19.35;;;;;;;8.55;79.50;99844.76;1781981;80;21854;-60
2022/02/22 11:00:13;;;;;;;30.70;20.90;;;;;;;8.56;79.60;99846.48;1770926;81;21240;-59
2022/02/22 11:03:21;;;;;;;30.10;20.70;;;;;;;8.55;79.59;99848.85;1769213;80;21181;-59
2022/02/22 11:06:26;;;;;;;42.05;27.87;;;;;;;8.50;79.58;99854.84;1769597;79;21850;-59
2022/02/22 11:09:33;;;;;;;37.48;25.32;;;;;;;8.42;79.70;99854.03;1769155;80;21182;-60
2022/02/22 11:12:39;;;;;;;30.77;19.98;;;;;;;8.38;79.80;99848.06;1768201;80;21348;-60
2022/02/22 11:15:46;;;;;;;26.15;19.40;;;;;;;8.31;79.92;99847.59;1768985;80;21812;-59
2022/02/22 11:18:58;;;;;;;28.23;18.92;;;;;;;8.24;80.04;99855.61;1765440;81;21217;-60
2022/02/22 11:22:06;;;;;;;28.47;17.67;;;;;;;8.17;80.23;99852.33;1766845;80;21667;-60
2022/02/22 11:25:13;;;;;;;31.57;19.27;;;;;;;8.13;80.50;99854.58;1761123;80;21228;-60
2022/02/22 11:28:19;;;;;;;33.10;19.05;;;;;;;8.13;80.51;99849.63;1766479;80;21550;-60
2022/02/22 11:31:28;;;;;;;31.27;19.02;;;;;;;8.11;80.52;99850.30;1756827;80;21166;-60
2022/02/22 11:34:45;;;;;;;34.20;20.50;;;;;;;8.06;80.44;99849.97;1763535;79;21268;-59
2022/02/22 11:37:52;;;;;;;33.33;19.80;;;;;;;8.02;80.56;99854.94;1764397;80;21227;-59
2022/02/22 11:40:57;;;;;;;33.83;18.92;;;;;;;8.00;80.61;99856.98;1763677;79;21285;-59
2022/02/22 11:44:09;;;;;;;31.62;19.62;;;;;;;8.02;80.77;99859.52;1764998;80;21216;-60
2022/02/22 11:47:23;;;;;;;34.78;21.77;;;;;;;8.03;80.80;99857.13;1759417;80;21738;-60
2022/02/22 11:50:30;;;;;;;;;;;;;;;8.06;80.95;99862.23;1769510;79;21220;-59
2022/02/22 11:53:37;;;;;;;49.33;25.05;;;;;;;8.03;80.66;99863.44;1761577;81;20296;-61
2022/02/22 11:56:43;;;;;;;45.43;24.18;;;;;;;7.96;80.55;99878.77;1767684;80;21192;-61
2022/02/22 12:00:04;;;;;;;45.10;23.50;;;;;;;7.90;80.57;99875.87;1757268;79;21177;-64
2022/02/22 12:03:21;;;;;;;44.20;24.65;;;;;;;7.84;80.60;99873.84;1749798;81;21210;-62
2022/02/22 12:06:29;;;;;;;40.65;21.65;;;;;;;7.82;80.78;99876.73;1767033;81;21186;-62
2022/02/22 12:09:46;;;;;;;37.10;20.82;;;;;;;7.82;80.80;99873.18;1768329;79;21185;-63
2022/02/22 12:12:52;;;;;;;37.00;21.40;;;;;;;7.81;80.88;99876.41;1768214;81;21211;-62
2022/02/22 12:15:59;;;;;;;39.88;22.40;;;;;;;7.79;80.86;99872.99;1768741;79;21209;-62
2022/02/22 12:19:09;;;;;;;37.83;22.58;;;;;;;7.81;80.90;99874.18;1753297;80;21224;-60
2022/02/22 12:22:15;;;;;;;44.67;24.82;;;;;;;7.83;80.92;99881.19;1756267;80;21279;-62
2022/02/22 12:25:21;;;;;;;37.50;23.00;;;;;;;7.83;80.78;99875.73;1766675;81;21601;-62
2022/02/22 12:28:28;;;;;;;46.05;24.45;;;;;;;7.84;80.80;99882.88;1768538;81;21196;-62
2022/02/22 12:31:38;;;;;;;36.53;20.88;;;;;;;7.82;80.63;99879.99;1764630;80;21212;-61
2022/02/22 12:34:44;;;;;;;36.42;21.10;;;;;;;7.80;80.64;99888.84;1761208;80;21824;-62
2022/02/22 12:37:50;;;;;;;37.75;20.97;;;;;;;7.79;80.71;99895.29;1756420;78;21216;-63
2022/02/22 12:40:58;;;;;;;38.78;21.95;;;;;;;7.82;80.72;99888.16;1763938;81;21682;-62
2022/02/22 12:44:06;;;;;;;40.12;23.07;;;;;;;7.86;80.73;99890.38;1760817;81;21193;-62
2022/02/22 12:47:13;;;;;;;37.65;22.00;;;;;;;7.90;80.66;99882.69;1761721;80;21739;-62
2022/02/22 12:50:22;;;;;;;44.38;25.88;;;;;;;7.93;80.59;99882.38;1744476;80;21289;-63
2022/02/22 12:53:37;;;;;;;37.28;22.90;;;;;;;7.95;80.40;99879.80;1767479;81;21189;-62
2022/02/22 12:56:51;;;;;;;35.52;20.20;;;;;;;7.96;80.23;99882.02;1766095;80;21189;-62
2022/02/22 12:59:57;;;;;;;38.42;22.82;;;;;;;7.99;80.12;99884.41;1752889;81;21181;-62
2022/02/22 13:03:24;;;;;;;39.45;21.50;;;;;;;7.99;80.02;99885.77;1723067;81;21547;-63
2022/02/22 13:06:36;;;;;;;38.42;21.97;;;;;;;8.02;79.99;99886.78;1767069;81;21178;-63
2022/02/22 13:09:38;;;;;;;41.55;21.93;;;;;;;8.04;79.89;99884.75;1759944;79;21455;-63
2022/02/22 13:12:44;;;;;;;40.58;23.80;;;;;;;8.07;79.74;99885.77;1766575;81;21272;-62
2022/02/22 13:15:50;;;;;;;36.53;21.37;;;;;;;8.08;79.59;99886.09;1760389;79;21173;-62
2022/02/22 13:19:14;;;;;;;47.50;26.85;;;;;;;8.08;79.35;99887.45;1763885;81;21707;-62
2022/02/22 13:22:40;;;;;;;36.95;21.42;;;;;;;8.11;79.20;99874.84;1766321;80;21197;-63
2022/02/22 13:25:48;;;;;;;33.20;19.07;;;;;;;8.12;79.03;99873.83;1767261;79;21629;-61
2022/02/22 13:29:01;;;;;;;32.75;18.15;;;;;;;8.14;78.95;99873.13;1768242;80;21206;-62
2022/02/22 13:32:19;;;;;;;42.20;24.80;;;;;;;8.15;78.82;99873.48;1753690;81;21185;-61
2022/02/22 13:35:29;;;;;;;67.45;40.83;;;;;;;8.16;78.73;99884.72;1751588;81;21295;-61
2022/02/22 13:38:38;;;;;;;41.35;24.52;;;;;;;8.16;78.65;99883.36;1762793;79;21216;-62
2022/02/22 13:42:09;;;;;;;35.75;19.62;;;;;;;8.11;78.42;99887.97;1711599;82;21704;-61
2022/02/22 13:45:19;;;;;;;37.85;21.12;;;;;;;8.10;78.38;99889.50;1715592;82;21244;-65
2022/02/22 13:48:24;;;;;;;39.75;22.42;;;;;;;8.01;78.05;99895.99;1721417;82;21298;-62
2022/02/22 13:51:31;;;;;;;32.78;19.92;;;;;;;7.95;78.08;99896.66;1699945;82;21202;-62
2022/02/22 13:54:35;;;;;;;47.00;27.20;;;;;;;7.96;78.15;99902.47;1705715;82;22031;-61
2022/02/22 13:57:48;;;;;;;43.78;27.82;;;;;;;7.94;78.12;99904.00;1730153;82;21584;-62
2022/02/22 14:00:54;;;;;;;42.27;26.10;;;;;;;7.92;78.06;99897.86;1725420;82;21280;-62
2022/02/22 14:04:00;;;;;;;46.50;29.90;;;;;;;7.95;78.04;99902.10;1718755;82;21234;-62
2022/02/22 14:07:05;;;;;;;38.40;22.32;;;;;;;7.94;78.05;99899.05;1726866;82;21358;-60
2022/02/22 14:10:12;;;;;;;39.13;22.75;;;;;;;7.99;77.96;99893.94;1710760;82;21289;-63
2022/02/22 14:13:18;;;;;;;35.65;22.13;;;;;;;7.99;77.68;99891.22;1709864;82;21218;-62
2022/02/22 14:16:25;;;;;;;23.12;15.55;;;;;;;8.01;77.51;99899.55;1713817;82;21954;-62
2022/02/22 14:19:30;;;;;;;23.10;14.83;;;;;;;8.04;77.24;99901.09;1731928;82;21218;-62
2022/02/22 14:22:39;;;;;;;22.62;14.58;;;;;;;8.07;76.99;99898.03;1707244;82;21790;-61
2022/02/22 14:25:45;;;;;;;29.60;19.05;;;;;;;8.10;76.70;99903.13;1721964;82;21229;-62
2022/02/22 14:28:53;;;;;;;28.50;18.27;;;;;;;8.12;76.48;99910.64;1709213;82;21489;-62
2022/02/22 14:32:02;;;;;;;26.33;17.98;;;;;;;8.12;76.32;99918.28;1718848;82;21227;-62